Time;durP1;ratioP1;P1;durP2;ratioP2;P2;SDS_P1;SDS_P2;PMS_P1;PMS_P2;Temp;Humidity;BMP_temperature;BMP_pressure;BME280_temperature;BME280_humidity;BME280_pressure;Samples;Min_cycle;Max_cycle;Signal;HPM_P1;HPM_P2
2023/07/10 00:01:44;;;;;;;6.22;2.50;;;;;;;20.17;75.64;101925.72;5002801;28;20431;-48
2023/07/10 00:04:19;;;;;;;8.50;2.67;;;;;;;20.19;75.23;101934.53;5003430;28;20038;-48
2023/07/10 00:06:46;;;;;;;7.55;2.80;;;;;;;20.12;75.15;101939.69;4995640;28;20026;-49
2023/07/10 00:09:11;;;;;;;7.50;2.55;;;;;;;20.12;75.41;101945.09;5001845;28;20026;-48
2023/07/10 00:11:37;;;;;;;6.00;2.60;;;;;;;20.02;75.48;101934.38;5004012;28;20475;-48
2023/07/10 00:14:06;;;;;;;5.88;2.70;;;;;;;20.09;75.79;101932.75;5000501;28;20359;-48
2023/07/10 00:16:31;;;;;;;6.90;2.80;;;;;;;20.09;76.50;101942.69;4998328;28;20037;-48
2023/07/10 00:18:56;;;;;;;8.18;2.40;;;;;;;20.08;77.05;101949.94;4996876;28;20030;-52
2023/07/10 00:21:22;;;;;;;6.32;2.58;;;;;;;20.07;77.90;101947.41;5001174;28;20030;-48
2023/07/10 00:23:47;;;;;;;8.18;2.90;;;;;;;20.04;80.26;101945.00;5006079;28;20088;-48
2023/07/10 00:26:19;;;;;;;5.30;2.90;;;;;;;19.99;79.26;101945.47;4997421;28;20034;-48
2023/07/10 00:28:44;;;;;;;4.57;2.28;;;;;;;19.93;77.78;101943.38;5002493;28;20467;-49
2023/07/10 00:31:12;;;;;;;5.53;2.72;;;;;;;19.88;80.37;101933.03;5005074;28;20110;-48
2023/07/10 00:33:38;;;;;;;7.53;2.67;;;;;;;19.87;78.96;101927.81;5002206;28;20056;-49
2023/07/10 00:36:29;;;;;;;8.18;2.90;;;;;;;19.81;80.42;101929.25;5004189;28;20018;-48
2023/07/10 00:38:55;;;;;;;9.00;2.63;;;;;;;19.80;79.47;101932.97;4995504;28;20074;-48
2023/07/10 00:41:29;;;;;;;5.82;2.67;;;;;;;19.78;78.50;101933.13;5002077;28;20129;-48
2023/07/10 00:44:00;;;;;;;5.70;2.22;;;;;;;19.71;80.15;101944.63;4997714;28;20121;-49
2023/07/10 00:46:49;;;;;;;6.70;2.80;;;;;;;19.74;79.06;101947.03;5011913;28;20029;-49
2023/07/10 00:49:29;;;;;;;7.35;2.60;;;;;;;19.69;79.29;101947.47;5000888;28;20068;-49
2023/07/10 00:52:02;;;;;;;6.15;2.80;;;;;;;19.64;80.56;101947.06;5001031;28;20463;-48
2023/07/10 00:54:33;;;;;;;6.00;2.38;;;;;;;19.65;80.61;101938.00;4999567;28;20064;-49
2023/07/10 00:57:01;;;;;;;6.32;2.80;;;;;;;19.63;81.69;101937.28;4998574;28;20222;-48
2023/07/10 00:59:28;;;;;;;8.25;2.88;;;;;;;19.58;79.98;101932.34;4992415;28;20030;-49
2023/07/10 01:02:21;;;;;;;8.05;2.95;;;;;;;19.65;79.15;101943.38;4995238;28;20104;-48
2023/07/10 01:05:06;;;;;;;7.57;3.03;;;;;;;19.62;80.00;101942.81;4996306;28;20533;-49
2023/07/10 01:07:41;;;;;;;8.15;2.72;;;;;;;19.58;80.53;101936.88;5001783;28;20049;-48
2023/07/10 01:10:10;;;;;;;5.30;2.67;;;;;;;19.51;80.60;101944.72;4999583;28;20023;-49
2023/07/10 01:12:38;;;;;;;7.72;2.78;;;;;;;19.51;80.99;101936.63;4999872;28;20026;-50
2023/07/10 01:15:04;;;;;;;8.20;3.13;;;;;;;19.53;81.25;101933.78;4998502;28;20038;-48
2023/07/10 01:17:30;;;;;;;6.72;3.03;;;;;;;19.49;80.51;101948.56;4997845;28;20134;-48
2023/07/10 01:20:33;;;;;;;6.07;2.90;;;;;;;19.55;79.89;101951.53;5001665;28;20030;-49
2023/07/10 01:23:00;;;;;;;6.30;2.75;;;;;;;19.45;81.07;101939.06;4992139;28;20045;-48
2023/07/10 01:25:26;;;;;;;5.60;2.65;;;;;;;19.40;80.92;101939.50;4999481;28;20028;-49
2023/07/10 01:27:52;;;;;;;6.28;2.83;;;;;;;19.39;80.40;101943.22;5002983;28;20022;-48
2023/07/10 01:30:31;;;;;;;7.22;2.47;;;;;;;19.36;79.91;101936.28;4998817;28;20093;-49
2023/07/10 01:32:56;;;;;;;5.40;2.72;;;;;;;19.29;79.42;101929.78;4996431;28;20064;-48
2023/07/10 01:35:25;;;;;;;4.40;2.22;;;;;;;19.28;80.35;101928.09;5002712;28;20078;-49
2023/07/10 01:37:50;;;;;;;;;;;;;;;19.42;77.90;101924.91;5007920;28;20076;-48
2023/07/10 01:40:24;;;;;;;6.67;2.63;;;;;;;19.21;79.54;101922.44;5007161;28;20329;-48
2023/07/10 01:42:49;;;;;;;7.22;2.55;;;;;;;19.21;81.40;101932.38;5002676;28;20080;-48
2023/07/10 01:45:15;;;;;;;6.05;2.65;;;;;;;19.23;81.22;101931.25;5005219;28;20739;-48
2023/07/10 01:47:40;;;;;;;8.13;2.72;;;;;;;19.23;80.89;101941.16;5007536;28;20026;-49
2023/07/10 01:50:06;;;;;;;5.95;2.80;;;;;;;19.22;80.73;101937.63;5003173;28;20507;-50
2023/07/10 01:52:32;;;;;;;5.32;2.55;;;;;;;19.19;81.70;101939.75;5004894;28;20142;-48
2023/07/10 01:54:57;;;;;;;8.00;2.78;;;;;;;19.20;81.61;101950.41;5008861;28;20113;-49
2023/07/10 01:57:24;;;;;;;6.80;3.13;;;;;;;19.15;81.53;101943.72;5003175;28;20046;-50
2023/07/10 01:59:50;;;;;;;6.97;3.05;;;;;;;19.11;80.86;101936.97;5002678;28;20064;-49
2023/07/10 02:02:16;;;;;;;6.30;2.90;;;;;;;19.11;80.77;101936.97;5005601;28;20756;-48
2023/07/10 02:04:41;;;;;;;7.53;3.03;;;;;;;19.09;81.67;101945.19;5009269;28;20116;-48
2023/07/10 02:07:06;;;;;;;6.60;3.20;;;;;;;19.06;82.10;101939.25;5002764;28;20376;-48
2023/07/10 02:09:32;;;;;;;6.28;2.95;;;;;;;19.00;80.92;101933.44;5001225;28;20384;-49
2023/07/10 02:11:58;;;;;;;5.80;2.70;;;;;;;19.00;81.69;101935.28;5008704;28;20080;-50
2023/07/10 02:14:24;;;;;;;6.05;2.65;;;;;;;18.92;82.88;101938.72;5004610;28;20433;-51
2023/07/10 02:16:49;;;;;;;7.05;3.40;;;;;;;18.89;82.70;101939.00;5005087;28;20030;-50
2023/07/10 02:19:15;;;;;;;6.00;2.75;;;;;;;18.90;83.14;101946.09;5008744;28;20375;-50
2023/07/10 02:21:41;;;;;;;9.30;3.38;;;;;;;18.88;82.11;101941.84;5001463;28;20021;-48
2023/07/10 02:24:07;;;;;;;7.75;3.08;;;;;;;18.77;84.13;101946.38;5008603;28;20380;-49
2023/07/10 02:26:33;;;;;;;7.07;3.22;;;;;;;18.81;83.72;101958.53;5000293;28;20031;-51
2023/07/10 02:28:59;;;;;;;7.85;2.75;;;;;;;18.73;84.64;101965.63;5002950;28;20329;-49
2023/07/10 02:31:25;;;;;;;5.10;2.72;;;;;;;18.73;84.38;101963.78;5004838;28;20030;-48
2023/07/10 02:33:51;;;;;;;6.32;2.90;;;;;;;18.72;85.64;101964.78;5003282;28;20117;-48
2023/07/10 02:36:16;;;;;;;4.82;3.00;;;;;;;18.75;84.64;101964.50;5005037;28;20122;-48
2023/07/10 02:38:42;;;;;;;4.95;3.08;;;;;;;18.73;85.21;101962.94;5006930;28;20549;-48
2023/07/10 02:41:08;;;;;;;6.78;3.20;;;;;;;18.67;86.46;101957.13;5003150;28;20033;-48
2023/07/10 02:43:34;;;;;;;9.35;4.10;;;;;;;18.67;86.53;101959.84;5007235;28;20386;-48
2023/07/10 02:45:59;;;;;;;8.55;3.92;;;;;;;18.62;86.53;101959.41;5002773;28;20452;-48
2023/07/10 02:48:24;;;;;;;10.07;4.07;;;;;;;18.63;86.91;101960.25;5005085;28;20026;-48
2023/07/10 02:50:50;;;;;;;12.35;4.80;;;;;;;18.57;87.17;101956.31;5002825;28;20053;-48
2023/07/10 02:53:15;;;;;;;7.73;4.60;;;;;;;18.59;86.87;101961.53;5001414;28;20026;-48
2023/07/10 02:55:40;;;;;;;8.35;4.47;;;;;;;18.57;87.74;101952.75;5005583;28;20296;-48
2023/07/10 02:58:06;;;;;;;12.07;5.18;;;;;;;18.51;87.57;101962.25;5006395;28;20034;-50
2023/07/10 03:00:32;;;;;;;8.85;5.00;;;;;;;18.51;88.65;101969.47;5004192;28;20022;-48
2023/07/10 03:02:57;;;;;;;9.93;6.30;;;;;;;18.51;88.73;101970.31;5002405;28;20093;-48
2023/07/10 03:05:24;;;;;;;7.50;5.10;;;;;;;18.46;88.86;101972.59;5001142;28;20034;-48
2023/07/10 03:07:49;;;;;;;7.75;5.40;;;;;;;18.43;88.54;101976.41;5000986;28;20038;-48
2023/07/10 03:10:15;;;;;;;8.80;6.25;;;;;;;18.45;89.44;101976.25;5003215;28;20041;-49
2023/07/10 03:12:41;;;;;;;10.13;6.10;;;;;;;18.43;89.46;101972.88;5002318;28;20109;-49
2023/07/10 03:15:06;;;;;;;9.95;5.65;;;;;;;18.42;89.11;101979.25;4998824;28;20023;-48
2023/07/10 03:17:33;;;;;;;9.10;6.38;;;;;;;18.37;89.57;101986.88;5002772;28;20034;-48
2023/07/10 03:19:58;;;;;;;10.25;7.05;;;;;;;18.25;90.46;101991.53;5000744;28;20062;-48
2023/07/10 03:22:23;;;;;;;10.88;6.43;;;;;;;18.21;90.76;101987.44;5001276;28;20049;-48
2023/07/10 03:24:52;;;;;;;10.88;6.53;;;;;;;18.20;90.75;101991.97;4999758;28;20061;-48
2023/07/10 03:27:17;;;;;;;9.77;6.78;;;;;;;18.17;90.41;101996.75;4998427;28;20431;-48
2023/07/10 03:29:42;;;;;;;11.15;6.25;;;;;;;18.22;89.51;102002.56;5003808;28;20175;-48
2023/07/10 03:32:08;;;;;;;9.48;6.93;;;;;;;18.11;89.71;101993.66;5000860;28;20124;-49
2023/07/10 03:34:33;;;;;;;11.63;6.97;;;;;;;18.11;90.22;101985.56;5000000;28;20394;-47
2023/07/10 03:36:59;;;;;;;9.85;6.22;;;;;;;18.08;89.03;101996.59;5001285;28;20053;-48
2023/07/10 03:39:24;;;;;;;10.52;6.50;;;;;;;18.11;89.90;101995.50;5005375;28;20446;-48
2023/07/10 03:41:50;;;;;;;8.43;6.63;;;;;;;18.10;89.52;101996.47;5004707;28;20046;-48
2023/07/10 03:44:15;;;;;;;10.20;6.38;;;;;;;18.07;89.42;101992.22;5000220;28;20361;-48
2023/07/10 03:46:40;;;;;;;12.50;6.30;;;;;;;18.06;89.31;102008.50;5004022;28;20088;-48
2023/07/10 03:49:06;;;;;;;12.07;6.43;;;;;;;18.03;89.55;102000.72;4999314;28;20026;-48
2023/07/10 03:51:31;;;;;;;9.45;6.13;;;;;;;17.98;89.37;101998.44;5002734;28;20778;-48
2023/07/10 03:53:56;;;;;;;7.72;6.25;;;;;;;17.97;90.30;101999.44;4997965;28;20039;-49
2023/07/10 03:56:22;;;;;;;13.10;7.03;;;;;;;17.93;90.71;102004.22;4997655;28;20034;-49
2023/07/10 03:58:48;;;;;;;11.18;7.00;;;;;;;17.94;90.54;102010.47;4994705;28;20065;-48
2023/07/10 04:01:14;;;;;;;10.18;6.65;;;;;;;17.91;90.28;102016.09;5003188;28;20083;-48
2023/07/10 04:03:39;;;;;;;10.43;6.78;;;;;;;17.90;90.35;102017.06;5004221;28;20029;-48
2023/07/10 04:06:10;;;;;;;11.15;6.93;;;;;;;17.82;90.45;102028.50;5001796;28;20038;-48
2023/07/10 04:08:38;;;;;;;9.07;6.65;;;;;;;17.85;90.36;102022.84;5002087;28;20045;-48
2023/07/10 04:11:22;;;;;;;9.80;6.88;;;;;;;17.84;89.85;102029.22;5002152;28;20383;-48
2023/07/10 04:13:49;;;;;;;10.80;7.47;;;;;;;17.80;90.33;102033.13;5002149;28;20105;-48
2023/07/10 04:16:27;;;;;;;9.63;7.90;;;;;;;17.79;90.55;102034.16;5001154;28;20072;-50
2023/07/10 04:18:53;;;;;;;15.73;8.18;;;;;;;17.74;91.18;102031.84;5005150;28;20057;-50
2023/07/10 04:21:30;;;;;;;12.45;8.23;;;;;;;17.75;91.47;102025.50;5002658;28;20033;-48
2023/07/10 04:23:56;;;;;;;13.45;8.30;;;;;;;17.68;92.62;102024.31;5002727;28;20034;-48
2023/07/10 04:26:24;;;;;;;13.60;8.30;;;;;;;17.74;92.41;102028.31;5001567;28;20030;-48
2023/07/10 04:28:52;;;;;;;14.57;8.52;;;;;;;17.75;93.11;102024.63;5001933;28;20506;-48
2023/07/10 04:31:18;;;;;;;12.15;8.50;;;;;;;17.83;92.39;102024.81;4995847;28;20038;-48
2023/07/10 04:33:44;;;;;;;12.45;8.98;;;;;;;17.85;92.80;102024.66;4996507;28;20053;-49
2023/07/10 04:36:10;;;;;;;16.08;8.90;;;;;;;17.88;93.12;102030.66;5001800;28;20022;-48
2023/07/10 04:38:35;;;;;;;14.05;8.95;;;;;;;17.91;93.38;102025.00;5005105;28;20129;-48
2023/07/10 04:41:05;;;;;;;16.20;8.82;;;;;;;17.95;92.44;102025.59;5002238;28;20355;-48
2023/07/10 04:43:33;;;;;;;14.32;8.90;;;;;;;17.98;92.67;102028.00;5006149;28;20475;-48
2023/07/10 04:46:01;;;;;;;10.48;8.70;;;;;;;18.00;93.23;102030.56;5001608;28;20419;-48
2023/07/10 04:48:27;;;;;;;11.10;8.75;;;;;;;18.03;91.93;102030.28;5000687;28;20029;-48
2023/07/10 04:50:54;;;;;;;10.52;7.97;;;;;;;18.09;92.67;102027.88;5000953;28;20036;-50
2023/07/10 04:53:20;;;;;;;11.27;8.68;;;;;;;18.12;92.58;102032.16;5001606;28;20042;-48
2023/07/10 04:55:47;;;;;;;11.25;8.73;;;;;;;18.16;91.71;102035.41;5001426;28;20029;-48
2023/07/10 04:58:13;;;;;;;13.50;8.60;;;;;;;18.23;91.86;102036.56;5000179;28;20498;-48
2023/07/10 05:00:38;;;;;;;11.57;8.38;;;;;;;18.27;92.03;102040.69;4998298;28;20113;-49
2023/07/10 05:03:05;;;;;;;14.05;9.02;;;;;;;18.33;91.94;102047.34;4999649;28;20042;-49
2023/07/10 05:05:31;;;;;;;13.88;8.60;;;;;;;18.42;91.63;102038.44;4996130;28;20038;-48
2023/07/10 05:07:56;;;;;;;13.07;8.73;;;;;;;18.49;91.72;102045.78;5001623;28;20030;-48
2023/07/10 05:10:22;;;;;;;11.45;8.82;;;;;;;18.56;90.64;102043.38;4999258;28;20361;-48
2023/07/10 05:12:47;;;;;;;11.88;8.52;;;;;;;18.61;91.13;102049.19;4999890;28;20018;-49
2023/07/10 05:15:12;;;;;;;14.70;8.75;;;;;;;18.75;90.43;102047.94;4998935;28;20030;-48
2023/07/10 05:17:38;;;;;;;14.98;8.95;;;;;;;18.79;89.55;102045.81;5000843;28;20027;-48
2023/07/10 05:20:04;;;;;;;13.00;8.43;;;;;;;18.82;89.47;102049.06;5000501;28;20077;-48
2023/07/10 05:22:29;;;;;;;13.85;8.73;;;;;;;18.85;89.45;102047.94;5004293;28;20026;-48
2023/07/10 05:24:54;;;;;;;11.35;8.27;;;;;;;18.88;89.18;102054.91;5001172;28;20026;-48
2023/07/10 05:27:20;;;;;;;12.38;8.10;;;;;;;18.85;89.15;102051.50;5002482;28;20026;-48
2023/07/10 05:29:45;;;;;;;13.55;8.68;;;;;;;18.82;88.76;102061.69;5000173;28;20022;-48
2023/07/10 05:32:10;;;;;;;11.68;7.93;;;;;;;18.88;89.20;102060.28;5001695;28;20368;-49
2023/07/10 05:34:36;;;;;;;12.67;8.17;;;;;;;18.93;89.25;102056.16;4993223;28;20046;-48
2023/07/10 05:37:01;;;;;;;12.75;7.57;;;;;;;19.08;88.72;102061.13;5002267;28;20289;-48
2023/07/10 05:39:29;;;;;;;15.20;7.28;;;;;;;19.19;87.76;102063.66;4999103;28;20031;-49
2023/07/10 05:41:55;;;;;;;14.60;7.20;;;;;;;19.26;86.98;102056.69;4994992;28;20093;-49
2023/07/10 05:44:20;;;;;;;8.95;6.22;;;;;;;19.48;86.55;102055.47;5002646;28;20120;-48
2023/07/10 05:46:45;;;;;;;12.48;6.78;;;;;;;19.60;85.66;102058.84;5001688;28;20038;-50
2023/07/10 05:49:10;;;;;;;8.57;6.00;;;;;;;19.80;84.25;102051.59;4998335;28;20396;-48
2023/07/10 05:51:36;;;;;;;10.25;6.43;;;;;;;19.92;83.96;102054.94;4996057;28;20289;-48
2023/07/10 05:54:02;;;;;;;8.50;5.18;;;;;;;20.15;82.38;102049.97;4994687;28;20508;-48
2023/07/10 05:56:27;;;;;;;10.65;5.97;;;;;;;20.30;82.30;102053.00;4995236;28;20107;-48
2023/07/10 05:58:52;;;;;;;11.73;5.70;;;;;;;20.52;80.68;102054.41;4994486;28;20069;-48
2023/07/10 06:01:18;;;;;;;9.30;5.43;;;;;;;20.65;80.34;102057.63;5001573;28;20022;-48
2023/07/10 06:03:43;;;;;;;9.48;4.82;;;;;;;20.79;79.02;102058.06;4995474;28;20467;-47
2023/07/10 06:06:09;;;;;;;7.85;5.07;;;;;;;20.92;78.31;102065.75;4991878;28;20088;-46
2023/07/10 06:08:35;;;;;;;8.15;4.63;;;;;;;21.10;78.02;102063.03;4977238;28;20076;-47
2023/07/10 06:11:01;;;;;;;9.48;4.78;;;;;;;21.34;76.59;102051.56;4983800;28;20057;-48
2023/07/10 06:13:27;;;;;;;10.00;4.35;;;;;;;21.50;76.11;102062.50;4994886;28;20038;-48
2023/07/10 06:15:56;;;;;;;9.15;4.75;;;;;;;21.70;74.03;102060.44;4993760;28;20035;-48
2023/07/10 06:18:23;;;;;;;10.05;4.70;;;;;;;21.91;73.51;102072.69;4999389;28;20076;-48
2023/07/10 06:20:59;;;;;;;6.88;4.63;;;;;;;21.99;73.97;102064.59;5010771;28;20115;-48
2023/07/10 06:23:26;;;;;;;8.90;4.57;;;;;;;22.05;71.88;102065.78;5000178;28;20391;-49
2023/07/10 06:25:52;;;;;;;6.82;4.43;;;;;;;22.22;72.09;102074.84;4997927;28;20050;-48
2023/07/10 06:28:18;;;;;;;7.80;4.43;;;;;;;22.46;70.24;102076.78;4998240;28;20095;-47
2023/07/10 06:30:57;;;;;;;6.72;4.30;;;;;;;22.52;70.11;102073.41;4998621;28;20484;-48
2023/07/10 06:33:23;;;;;;;7.57;4.53;;;;;;;22.74;68.51;102077.31;4994619;28;20029;-46
2023/07/10 06:35:48;;;;;;;7.07;4.10;;;;;;;22.68;67.44;102076.16;4996603;28;20042;-46
2023/07/10 06:38:14;;;;;;;8.80;3.92;;;;;;;22.88;66.90;102082.09;4993826;28;20546;-46
2023/07/10 06:40:39;;;;;;;6.82;4.18;;;;;;;23.07;67.52;102075.50;4997100;28;20492;-47
2023/07/10 06:43:04;;;;;;;10.10;4.03;;;;;;;23.31;66.26;102076.47;4993580;28;20022;-47
2023/07/10 06:45:30;;;;;;;6.78;3.72;;;;;;;23.60;63.82;102080.50;4998165;28;20264;-48
2023/07/10 06:47:55;;;;;;;7.60;3.45;;;;;;;23.69;62.80;102076.72;4999030;28;20021;-52
2023/07/10 06:50:20;;;;;;;10.75;3.78;;;;;;;23.81;60.82;102078.06;5001043;28;20495;-52
2023/07/10 06:52:46;;;;;;;7.18;3.35;;;;;;;23.86;59.96;102071.28;4997661;28;20507;-53
2023/07/10 06:55:16;;;;;;;8.80;3.03;;;;;;;24.00;59.95;102076.81;4996647;28;20439;-53
2023/07/10 06:57:42;;;;;;;11.48;3.38;;;;;;;24.23;57.63;102084.19;4997378;28;20093;-53
2023/07/10 07:00:10;;;;;;;6.43;3.30;;;;;;;24.50;57.41;102088.25;4997057;28;20097;-51
2023/07/10 07:02:36;;;;;;;6.40;3.05;;;;;;;24.74;57.91;102081.00;5002140;28;20042;-54
2023/07/10 07:05:03;;;;;;;7.13;2.83;;;;;;;24.99;56.66;102083.50;4991022;28;20442;-52
2023/07/10 07:07:28;;;;;;;9.15;3.58;;;;;;;25.05;54.76;102080.91;4997602;28;20685;-54
2023/07/10 07:09:54;;;;;;;9.20;2.83;;;;;;;25.27;54.49;102071.03;4998642;28;20037;-52
2023/07/10 07:12:19;;;;;;;8.43;2.97;;;;;;;25.36;53.70;102077.22;4997474;28;20040;-54
2023/07/10 07:14:44;;;;;;;8.07;3.30;;;;;;;25.49;52.86;102085.59;5000139;28;20022;-52
2023/07/10 07:17:10;;;;;;;7.22;2.95;;;;;;;25.46;52.33;102082.41;4999045;28;20058;-52
2023/07/10 07:19:35;;;;;;;9.95;3.30;;;;;;;25.83;52.10;102086.06;4994201;28;20145;-52
2023/07/10 07:22:01;;;;;;;10.88;3.15;;;;;;;25.98;52.76;102086.06;4996022;28;20113;-52
2023/07/10 07:24:27;;;;;;;8.98;3.45;;;;;;;26.03;51.78;102091.81;4992229;28;20058;-51
2023/07/10 07:26:52;;;;;;;13.52;3.42;;;;;;;26.24;51.95;102087.47;4999762;28;20042;-51
2023/07/10 07:29:17;;;;;;;10.10;3.92;;;;;;;26.35;50.96;102101.41;4995312;28;20066;-52
2023/07/10 07:31:43;;;;;;;8.02;3.92;;;;;;;26.42;50.42;102103.38;4997815;28;20120;-51
2023/07/10 07:34:08;;;;;;;7.37;3.23;;;;;;;26.57;49.41;102098.72;4994851;28;20142;-52
2023/07/10 07:36:34;;;;;;;10.48;3.53;;;;;;;26.52;49.18;102103.91;4998883;28;20305;-53
2023/07/10 07:39:04;;;;;;;8.73;3.53;;;;;;;26.72;50.85;102099.53;4998830;28;20034;-52
2023/07/10 07:41:33;;;;;;;9.32;3.45;;;;;;;26.83;49.68;102103.63;4993018;28;20475;-52
2023/07/10 07:43:59;;;;;;;6.97;3.53;;;;;;;27.09;48.60;102096.72;4999233;28;20081;-52
2023/07/10 07:46:25;;;;;;;9.15;3.55;;;;;;;27.25;48.09;102090.97;5000161;28;20030;-51
2023/07/10 07:48:50;;;;;;;7.68;3.45;;;;;;;27.20;47.47;102092.63;4993373;28;20401;-52
2023/07/10 07:51:16;;;;;;;9.43;3.65;;;;;;;27.35;47.95;102100.75;4993963;28;20038;-52
2023/07/10 07:53:41;;;;;;;9.82;3.58;;;;;;;27.56;47.27;102094.34;4999476;28;20057;-54
2023/07/10 07:56:07;;;;;;;7.95;2.75;;;;;;;27.67;45.57;102093.78;4998472;28;20019;-55
2023/07/10 07:58:33;;;;;;;7.95;3.38;;;;;;;27.97;44.26;102093.56;4996596;28;20488;-54
2023/07/10 08:00:59;;;;;;;8.95;2.97;;;;;;;28.03;45.43;102082.66;5004304;28;20061;-52
2023/07/10 08:03:25;;;;;;;12.40;2.80;;;;;;;28.15;43.39;102074.72;4999692;28;20018;-52
2023/07/10 08:05:51;;;;;;;11.15;3.15;;;;;;;28.45;43.48;102070.81;4996458;28;20391;-55
2023/07/10 08:08:16;;;;;;;8.80;2.58;;;;;;;28.69;43.28;102072.13;5000843;28;20040;-53
2023/07/10 08:10:46;;;;;;;8.45;3.00;;;;;;;28.72;43.02;102069.81;4999605;28;20060;-53
2023/07/10 08:13:12;;;;;;;7.47;2.33;;;;;;;28.97;41.78;102070.03;4995491;28;20030;-52
2023/07/10 08:15:38;;;;;;;7.60;2.75;;;;;;;29.04;41.99;102075.50;5000570;28;20116;-55
2023/07/10 08:18:04;;;;;;;8.20;2.50;;;;;;;29.38;40.51;102079.09;4998484;28;20038;-51
2023/07/10 08:20:30;;;;;;;8.45;2.78;;;;;;;29.44;40.03;102077.38;5003139;28;20026;-53
2023/07/10 08:22:55;;;;;;;7.93;2.70;;;;;;;29.46;40.08;102075.28;5002274;28;20107;-54
2023/07/10 08:25:21;;;;;;;7.88;2.45;;;;;;;29.50;38.85;102084.75;4999123;28;20431;-54
2023/07/10 08:27:46;;;;;;;8.48;2.85;;;;;;;29.82;39.38;102076.69;5001189;28;20035;-52
2023/07/10 08:30:13;;;;;;;7.72;2.25;;;;;;;30.05;38.63;102079.75;5001976;28;20045;-52
2023/07/10 08:32:39;;;;;;;6.35;2.20;;;;;;;30.28;37.24;102081.13;4999944;28;20379;-52
2023/07/10 08:35:06;;;;;;;7.32;2.42;;;;;;;30.17;38.66;102079.88;4997979;28;20057;-54
2023/07/10 08:37:32;;;;;;;6.60;3.22;;;;;;;30.53;38.23;102078.47;4996288;28;20029;-53
2023/07/10 08:39:57;;;;;;;7.68;3.10;;;;;;;30.68;38.25;102085.50;5000138;28;20460;-51
2023/07/10 08:42:28;;;;;;;7.55;2.67;;;;;;;30.70;38.03;102076.00;4998996;28;20041;-51
2023/07/10 08:44:55;;;;;;;8.30;2.30;;;;;;;30.87;37.11;102078.19;4996778;28;20534;-52
2023/07/10 08:47:21;;;;;;;5.30;2.10;;;;;;;31.10;36.50;102078.44;4998041;28;20049;-53
2023/07/10 08:50:04;;;;;;;7.95;2.33;;;;;;;31.35;36.94;102080.31;4998872;28;20099;-51
2023/07/10 08:52:49;;;;;;;5.03;2.10;;;;;;;31.22;37.00;102064.00;5002183;28;20022;-52
2023/07/10 08:55:27;;;;;;;7.38;2.03;;;;;;;31.33;36.08;102066.81;4999919;28;20034;-53
2023/07/10 08:58:00;;;;;;;;;;;;;;;31.83;38.14;102071.38;5000467;28;20037;-52
2023/07/10 09:00:27;;;;;;;5.93;2.03;;;;;;;31.64;34.98;102073.28;5001592;28;19959;-52
2023/07/10 09:03:07;;;;;;;9.65;2.13;;;;;;;31.98;35.10;102081.13;4999111;28;20033;-52
2023/07/10 09:05:36;;;;;;;5.25;2.15;;;;;;;31.92;34.86;102071.88;4996663;28;20026;-53
2023/07/10 09:08:06;;;;;;;6.45;1.90;;;;;;;31.97;34.52;102079.44;5000722;28;20392;-52
2023/07/10 09:10:42;;;;;;;4.75;2.00;;;;;;;32.37;34.52;102073.41;5002493;28;20383;-52
2023/07/10 09:13:14;;;;;;;6.10;2.30;;;;;;;32.03;34.43;102076.59;5001914;28;20033;-54
2023/07/10 09:15:55;;;;;;;8.23;2.50;;;;;;;32.39;33.33;102066.63;4996592;28;20022;-52
2023/07/10 09:18:31;;;;;;;5.28;2.10;;;;;;;32.50;33.22;102067.72;4995512;28;20053;-52
2023/07/10 09:20:59;;;;;;;7.82;2.00;;;;;;;32.77;33.03;102072.81;4999109;28;20372;-52
2023/07/10 09:23:33;;;;;;;7.30;2.43;;;;;;;32.86;33.88;102074.16;4994610;28;20038;-52
2023/07/10 09:26:09;;;;;;;6.13;2.30;;;;;;;33.15;33.38;102074.28;4999109;28;20032;-54
2023/07/10 09:28:38;;;;;;;7.35;2.55;;;;;;;32.98;31.59;102075.00;4994929;28;20030;-53
2023/07/10 09:31:09;;;;;;;5.28;2.25;;;;;;;33.28;32.13;102073.25;4999288;28;20023;-51
2023/07/10 09:33:42;;;;;;;5.95;2.30;;;;;;;33.36;32.10;102072.88;4999798;28;20037;-52
2023/07/10 09:36:16;;;;;;;3.88;1.98;;;;;;;33.50;31.70;102065.19;4997124;28;20073;-51
2023/07/10 09:38:44;;;;;;;7.45;2.30;;;;;;;33.49;31.12;102069.00;4993138;28;20041;-51
2023/07/10 09:41:11;;;;;;;7.45;2.47;;;;;;;33.66;31.04;102077.34;4996068;28;20129;-52
2023/07/10 09:43:37;;;;;;;5.68;2.22;;;;;;;33.76;31.08;102074.00;4998653;28;20038;-53
2023/07/10 09:46:03;;;;;;;4.88;1.92;;;;;;;33.46;29.77;102075.84;4991606;28;20065;-52
2023/07/10 09:48:37;;;;;;;7.43;2.40;;;;;;;33.51;31.45;102067.72;4996832;28;20038;-51
2023/07/10 09:51:06;;;;;;;4.88;1.88;;;;;;;33.03;30.50;102074.28;4999061;28;20099;-52
2023/07/10 09:53:41;;;;;;;7.15;1.85;;;;;;;32.90;31.47;102078.09;5013138;28;20121;-49
2023/07/10 09:56:06;;;;;;;5.80;2.00;;;;;;;33.04;31.23;102086.13;5001653;28;20030;-49
2023/07/10 09:58:32;;;;;;;4.32;1.90;;;;;;;33.26;30.80;102072.63;5003540;28;20038;-50
2023/07/10 10:01:04;;;;;;;5.90;2.05;;;;;;;33.53;30.37;102084.00;4997449;28;20054;-49
2023/07/10 10:03:43;;;;;;;4.82;1.95;;;;;;;33.90;30.67;102070.72;4998779;28;20030;-49
2023/07/10 10:06:29;;;;;;;5.82;2.35;;;;;;;33.85;30.96;102064.28;4997563;28;20105;-49
2023/07/10 10:08:55;;;;;;;6.22;2.17;;;;;;;33.92;29.60;102076.00;4997965;28;20054;-51
2023/07/10 10:11:36;;;;;;;5.47;1.85;;;;;;;33.84;31.23;102068.97;4999334;28;20415;-50
2023/07/10 10:14:05;;;;;;;7.10;2.10;;;;;;;33.69;31.14;102063.13;4996416;28;20061;-50
2023/07/10 10:16:37;;;;;;;5.00;2.00;;;;;;;33.93;30.08;102064.75;5000223;28;20060;-50
2023/07/10 10:19:16;;;;;;;7.30;2.13;;;;;;;34.27;30.50;102067.63;5001465;28;20080;-49
2023/07/10 10:21:42;;;;;;;5.57;2.00;;;;;;;34.31;28.51;102064.34;4994219;28;20479;-50
2023/07/10 10:24:12;;;;;;;4.95;2.13;;;;;;;34.42;29.09;102072.56;4992216;28;20097;-50
2023/07/10 10:26:43;;;;;;;7.47;1.88;;;;;;;34.48;28.74;102062.47;5000454;28;20410;-49
2023/07/10 10:29:16;;;;;;;5.50;2.03;;;;;;;34.60;28.94;102067.91;4993560;28;20483;-49
2023/07/10 10:32:09;;;;;;;8.85;1.88;;;;;;;34.72;29.34;102059.56;5001757;28;20356;-49
2023/07/10 10:34:55;;;;;;;8.20;2.08;;;;;;;34.57;29.08;102065.66;5000070;28;20053;-50
2023/07/10 10:37:42;;;;;;;4.53;1.73;;;;;;;34.63;29.04;102062.72;4999912;28;20042;-50
2023/07/10 10:40:23;;;;;;;5.70;2.15;;;;;;;34.30;28.79;102060.78;4999746;28;20041;-50
2023/07/10 10:43:26;;;;;;;5.65;1.92;;;;;;;33.85;29.82;102056.84;4987449;28;20410;-50
2023/07/10 10:46:16;;;;;;;7.35;2.30;;;;;;;33.34;29.40;102053.00;4999641;28;20029;-50
2023/07/10 10:48:53;;;;;;;7.03;2.38;;;;;;;33.16;28.34;102060.31;4996006;28;20048;-49
2023/07/10 10:51:53;;;;;;;4.57;1.73;;;;;;;33.42;29.94;102060.06;4993851;28;20085;-50
2023/07/10 10:54:34;;;;;;;5.38;1.85;;;;;;;33.57;29.64;102063.13;4996749;28;20022;-50
2023/07/10 10:57:00;;;;;;;6.38;2.00;;;;;;;33.56;29.14;102064.22;4991046;28;20041;-49
2023/07/10 10:59:36;;;;;;;7.70;2.00;;;;;;;33.66;29.51;102064.44;4994039;28;20052;-50
2023/07/10 11:02:30;;;;;;;6.95;1.88;;;;;;;33.88;29.73;102069.31;4995725;28;20538;-49
2023/07/10 11:05:31;;;;;;;7.85;2.30;;;;;;;33.51;29.87;102075.13;4997436;28;20064;-49
2023/07/10 11:08:01;;;;;;;6.60;2.20;;;;;;;33.40;29.72;102078.75;5001490;28;20046;-50
2023/07/10 11:10:36;;;;;;;5.20;1.92;;;;;;;33.47;29.69;102076.69;4998206;28;20054;-51
2023/07/10 11:13:03;;;;;;;14.70;2.38;;;;;;;33.03;31.07;102076.22;4999313;28;20105;-50
2023/07/10 11:15:31;;;;;;;5.47;1.70;;;;;;;32.94;29.81;102078.47;4996940;28;20034;-50
2023/07/10 11:17:58;;;;;;;8.02;2.33;;;;;;;32.93;30.00;102074.88;4998009;28;20029;-50
2023/07/10 11:20:26;;;;;;;8.05;2.30;;;;;;;32.81;30.56;102069.38;5000428;28;20034;-49
2023/07/10 11:23:00;;;;;;;7.93;2.00;;;;;;;33.08;29.51;102052.38;4994182;28;20026;-50
2023/07/10 11:25:28;;;;;;;5.38;2.20;;;;;;;32.99;29.15;102046.41;4993983;28;20332;-50
2023/07/10 11:27:53;;;;;;;;;;;;;;;33.59;30.35;102047.19;4999191;28;20049;-49
2023/07/10 11:30:31;;;;;;;5.80;2.10;;;;;;;33.25;29.75;102043.44;5002409;28;20274;-49
2023/07/10 11:33:15;;;;;;;5.10;2.10;;;;;;;33.08;30.09;102044.13;5000031;28;20046;-49